createdAt,value
2023-01-21T00:00:59.634Z,-6.80
2023-01-21T00:03:26.315Z,-6.80
2023-01-21T00:05:53.100Z,-6.80
2023-01-21T00:08:19.862Z,-6.90
2023-01-21T00:10:46.647Z,-6.90
2023-01-21T00:13:13.662Z,-6.90
2023-01-21T00:15:40.337Z,-6.90
2023-01-21T00:18:07.352Z,-7.00
2023-01-21T00:20:34.189Z,-7.00
2023-01-21T00:23:00.981Z,-6.90
2023-01-21T00:25:28.059Z,-6.90
2023-01-21T00:27:54.980Z,-6.90
2023-01-21T00:30:22.198Z,-6.90
2023-01-21T00:32:48.942Z,-6.80
2023-01-21T00:35:16.277Z,-6.80
2023-01-21T00:37:42.918Z,-6.80
2023-01-21T00:40:10.088Z,-6.90
2023-01-21T00:42:36.675Z,-6.90
2023-01-21T00:45:04.099Z,-6.80
2023-01-21T00:47:30.678Z,-6.80
2023-01-21T00:49:57.288Z,-6.80
2023-01-21T00:52:23.905Z,-6.80
2023-01-21T00:54:50.526Z,-6.80
2023-01-21T00:57:17.121Z,-6.80
2023-01-21T00:59:43.896Z,-6.80
2023-01-21T01:02:10.575Z,-6.90
2023-01-21T01:04:37.411Z,-6.90
2023-01-21T01:07:04.392Z,-6.90
2023-01-21T01:09:31.044Z,-7.00
2023-01-21T01:11:57.616Z,-7.00
2023-01-21T01:14:24.708Z,-7.00
2023-01-21T01:16:51.330Z,-7.10
2023-01-21T01:19:18.266Z,-7.10
2023-01-21T01:21:44.874Z,-7.00
2023-01-21T01:24:11.683Z,-7.10
2023-01-21T01:26:40.501Z,-7.20
2023-01-21T01:29:11.679Z,-7.20
2023-01-21T01:31:38.449Z,-7.00
2023-01-21T01:34:05.064Z,-6.90
2023-01-21T01:36:31.717Z,-6.80
2023-01-21T01:38:59.322Z,-6.60
2023-01-21T01:41:28.479Z,-6.60
2023-01-21T01:44:01.936Z,-6.70
2023-01-21T01:46:34.312Z,-6.90
2023-01-21T01:49:08.169Z,-6.90
2023-01-21T01:51:51.503Z,-6.90
2023-01-21T01:54:24.376Z,-6.80
2023-01-21T01:56:57.364Z,-6.80
2023-01-21T01:59:24.523Z,-7.00
2023-01-21T02:01:51.566Z,-6.80
2023-01-21T02:04:25.931Z,-6.90
2023-01-21T02:06:54.746Z,-7.00
2023-01-21T02:09:21.905Z,-7.00
2023-01-21T02:11:48.807Z,-7.10
2023-01-21T02:14:15.446Z,-7.10
2023-01-21T02:17:03.746Z,-7.00
2023-01-21T02:20:06.285Z,-6.80
2023-01-21T02:23:06.930Z,-6.90
2023-01-21T02:25:54.788Z,-7.00
2023-01-21T02:28:30.020Z,-7.10
2023-01-21T02:31:15.471Z,-7.20
2023-01-21T02:34:06.768Z,-7.30
2023-01-21T02:36:38.336Z,-7.50
2023-01-21T02:39:26.820Z,-7.60
2023-01-21T02:42:05.107Z,-7.60
2023-01-21T02:44:42.759Z,-7.60
2023-01-21T02:47:28.357Z,-7.50
2023-01-21T02:50:03.755Z,-7.40
2023-01-21T02:52:30.741Z,-7.50
2023-01-21T02:54:59.348Z,-7.60
2023-01-21T02:57:37.165Z,-7.60
2023-01-21T03:00:36.966Z,-7.60
2023-01-21T03:03:11.370Z,-7.60
2023-01-21T03:05:49.848Z,-7.70
2023-01-21T03:08:20.736Z,-7.70
2023-01-21T03:11:08.985Z,-7.60
2023-01-21T03:14:00.951Z,-7.70
2023-01-21T03:16:52.598Z,-7.70
2023-01-21T03:19:20.686Z,-7.70
2023-01-21T03:21:48.834Z,-7.80
2023-01-21T03:24:16.129Z,-7.90
2023-01-21T03:26:48.129Z,-7.90
2023-01-21T03:29:18.033Z,-7.80
2023-01-21T03:31:49.209Z,-7.80
2023-01-21T03:34:18.133Z,-7.80
2023-01-21T03:36:54.526Z,-7.90
2023-01-21T03:39:29.019Z,-7.90
2023-01-21T03:41:56.443Z,-7.90
2023-01-21T03:44:23.219Z,-7.60
2023-01-21T03:47:01.568Z,-7.70
2023-01-21T03:49:58.926Z,-7.60
2023-01-21T03:52:26.556Z,-7.40
2023-01-21T03:54:54.071Z,-7.30
2023-01-21T03:57:21.102Z,-7.20
2023-01-21T03:59:47.703Z,-7.00
2023-01-21T04:02:19.957Z,-6.90
2023-01-21T04:04:47.447Z,-6.70
2023-01-21T04:07:16.195Z,-6.40
2023-01-21T04:09:43.304Z,-6.20
2023-01-21T04:12:10.008Z,-6.10
2023-01-21T04:14:36.712Z,-5.90
2023-01-21T04:17:04.221Z,-5.80
2023-01-21T04:19:30.885Z,-5.80
2023-01-21T04:21:57.531Z,-5.90
2023-01-21T04:24:24.268Z,-5.80
2023-01-21T04:26:51.357Z,-5.70
2023-01-21T04:29:18.083Z,-5.70
2023-01-21T04:31:44.857Z,-5.50
2023-01-21T04:34:11.552Z,-5.30
2023-01-21T04:36:38.186Z,-5.30
2023-01-21T04:39:05.078Z,-5.30
2023-01-21T04:41:31.729Z,-5.10
2023-01-21T04:43:58.427Z,-5.00
2023-01-21T04:46:25.158Z,-4.80
2023-01-21T04:48:52.038Z,-4.60
2023-01-21T04:51:18.862Z,-4.40
2023-01-21T04:53:45.540Z,-4.30
2023-01-21T04:56:12.179Z,-4.30
2023-01-21T04:58:38.997Z,-4.00
2023-01-21T05:01:05.778Z,-3.80
2023-01-21T05:03:32.417Z,-3.50
2023-01-21T05:05:59.051Z,-3.40
2023-01-21T05:08:25.788Z,-3.20
2023-01-21T05:10:52.449Z,-2.90
2023-01-21T05:13:19.110Z,-2.70
2023-01-21T05:15:45.740Z,-2.50
2023-01-21T05:18:12.375Z,-2.20
2023-01-21T05:20:39.112Z,-1.90
2023-01-21T05:23:05.694Z,-1.70
2023-01-21T05:25:32.336Z,-1.60
2023-01-21T05:27:58.966Z,-1.50
2023-01-21T05:30:25.632Z,-1.50
2023-01-21T05:32:53.845Z,-1.50
2023-01-21T05:35:22.095Z,-1.50
2023-01-21T05:37:48.950Z,-1.40
2023-01-21T05:40:16.526Z,-1.30
2023-01-21T05:42:43.867Z,-1.40
2023-01-21T05:45:11.642Z,-1.50
2023-01-21T05:47:39.090Z,-1.40
2023-01-21T05:50:06.397Z,-1.50
2023-01-21T05:52:33.055Z,-1.40
2023-01-21T05:55:02.105Z,-1.50
2023-01-21T05:57:30.198Z,-1.50
2023-01-21T05:59:57.293Z,-1.60
2023-01-21T06:02:24.724Z,-1.50
2023-01-21T06:04:51.384Z,-1.60
2023-01-21T06:07:17.969Z,-1.70
2023-01-21T06:09:44.570Z,-1.70
2023-01-21T06:12:11.150Z,-1.80
2023-01-21T06:14:37.909Z,-1.70
2023-01-21T06:17:04.544Z,-1.70
2023-01-21T06:19:31.868Z,-1.60
2023-01-21T06:21:58.553Z,-1.60
2023-01-21T06:24:25.244Z,-1.60
2023-01-21T06:26:53.105Z,-1.60
2023-01-21T06:29:19.787Z,-1.60
2023-01-21T06:31:46.716Z,-1.60
2023-01-21T06:34:13.534Z,-1.60
2023-01-21T06:36:42.926Z,-1.60
2023-01-21T06:39:10.708Z,-1.70
2023-01-21T06:41:37.414Z,-1.60
2023-01-21T06:44:05.115Z,-1.60
2023-01-21T06:46:32.076Z,-1.70
2023-01-21T06:48:58.865Z,-1.70
2023-01-21T06:51:25.777Z,-1.70
2023-01-21T06:53:52.695Z,-1.60
2023-01-21T06:56:19.625Z,-1.60
2023-01-21T06:58:46.386Z,-1.60
2023-01-21T07:01:13.135Z,-1.50
2023-01-21T07:03:40.310Z,-1.60
2023-01-21T07:06:07.156Z,-1.60
2023-01-21T07:08:33.920Z,-1.50
2023-01-21T07:11:00.629Z,-1.50
2023-01-21T07:13:27.250Z,-1.40
2023-01-21T07:15:59.514Z,-1.40
2023-01-21T07:18:26.170Z,-1.30
2023-01-21T07:20:52.891Z,-1.30
2023-01-21T07:23:19.463Z,-1.20
2023-01-21T07:25:46.049Z,-1.20
2023-01-21T07:28:12.711Z,-1.20
2023-01-21T07:30:39.456Z,-1.20
2023-01-21T07:33:07.719Z,-1.30
2023-01-21T07:35:34.910Z,-1.30
2023-01-21T07:38:02.097Z,-1.30
2023-01-21T07:40:28.746Z,-1.20
2023-01-21T07:42:56.240Z,-1.20
2023-01-21T07:45:24.167Z,-1.20
2023-01-21T07:47:50.859Z,-1.20
2023-01-21T07:50:17.582Z,-1.20
2023-01-21T07:52:44.175Z,-1.20
2023-01-21T07:55:12.616Z,-1.10
2023-01-21T07:57:39.729Z,-1.10
2023-01-21T08:00:07.116Z,-1.00
2023-01-21T08:02:38.877Z,-0.90
2023-01-21T08:05:07.452Z,-0.90
2023-01-21T08:07:34.047Z,-1.00
2023-01-21T08:10:00.965Z,-1.10
2023-01-21T08:12:27.972Z,-1.10
2023-01-21T08:14:54.585Z,-1.10
2023-01-21T08:17:21.311Z,-1.00
2023-01-21T08:19:47.922Z,-0.90
2023-01-21T08:22:14.615Z,-0.90
2023-01-21T08:24:41.228Z,-0.90
2023-01-21T08:27:08.079Z,-0.90
2023-01-21T08:29:34.812Z,-1.00
2023-01-21T08:32:01.497Z,-0.80
2023-01-21T08:34:28.627Z,-0.70
2023-01-21T08:36:55.227Z,-0.70
2023-01-21T08:39:22.294Z,-0.60
2023-01-21T08:41:48.966Z,-0.60
2023-01-21T08:44:15.761Z,-0.50
2023-01-21T08:46:42.338Z,-0.40
2023-01-21T08:49:09.367Z,-0.50
2023-01-21T08:51:35.970Z,-0.50
2023-01-21T08:54:06.463Z,-0.50
2023-01-21T08:56:33.234Z,-0.60
2023-01-21T08:59:00.034Z,-0.50
2023-01-21T09:01:26.947Z,-0.50
2023-01-21T09:03:57.868Z,-0.50
2023-01-21T09:06:26.412Z,-0.60
2023-01-21T09:08:53.345Z,-0.40
2023-01-21T09:11:20.239Z,-0.40
2023-01-21T09:13:47.104Z,-0.40
2023-01-21T09:16:16.448Z,-0.50
2023-01-21T09:18:43.516Z,-0.50
2023-01-21T09:21:11.393Z,-0.40
2023-01-21T09:23:39.343Z,-0.50
2023-01-21T09:26:17.387Z,-0.50
2023-01-21T09:28:46.904Z,-0.60
2023-01-21T09:31:18.702Z,-0.50
2023-01-21T09:33:47.858Z,-0.50
2023-01-21T09:36:16.907Z,-0.50
2023-01-21T09:38:44.767Z,-0.50
2023-01-21T09:41:29.522Z,-0.40
2023-01-21T09:44:11.273Z,-0.40
2023-01-21T09:46:52.183Z,-0.40
2023-01-21T09:49:25.242Z,-0.40
2023-01-21T09:52:17.889Z,-0.30
2023-01-21T09:54:44.515Z,-0.10
2023-01-21T09:57:30.311Z,-0.10
2023-01-21T10:00:05.298Z,-0.20
2023-01-21T10:02:57.101Z,-0.30
2023-01-21T10:05:45.543Z,-0.30
2023-01-21T10:08:43.942Z,-0.20
2023-01-21T10:11:46.269Z,-0.10
2023-01-21T10:14:22.323Z,-0.10
2023-01-21T10:16:48.902Z,0.00
2023-01-21T10:19:21.675Z,-0.10
2023-01-21T10:22:00.240Z,-0.20
2023-01-21T10:24:38.577Z,-0.20
2023-01-21T10:27:05.685Z,-0.30
2023-01-21T10:29:35.944Z,-0.40
2023-01-21T10:32:07.633Z,-0.50
2023-01-21T10:34:40.098Z,-0.50
2023-01-21T10:37:22.195Z,-0.40
2023-01-21T10:39:58.908Z,-0.40
2023-01-21T10:42:35.790Z,-0.40
2023-01-21T10:45:31.142Z,-0.30
2023-01-21T10:48:24.267Z,-0.20
2023-01-21T10:51:07.686Z,-0.20
2023-01-21T10:53:38.488Z,-0.20
2023-01-21T10:56:17.583Z,-0.30
2023-01-21T10:59:06.115Z,-0.40
2023-01-21T11:01:37.653Z,-0.60
2023-01-21T11:04:11.423Z,-0.60
2023-01-21T11:06:40.071Z,-0.60
2023-01-21T11:09:10.752Z,-0.50
2023-01-21T11:11:40.168Z,-0.30
2023-01-21T11:14:06.883Z,-0.30
2023-01-21T11:16:45.651Z,-0.40
2023-01-21T11:19:32.542Z,-0.50
2023-01-21T11:22:17.232Z,-0.40
2023-01-21T11:24:46.561Z,-0.10
2023-01-21T11:27:42.627Z,0.00
2023-01-21T11:30:48.293Z,0.00
2023-01-21T11:33:27.020Z,0.00
2023-01-21T11:35:55.093Z,0.00
2023-01-21T11:38:35.538Z,0.00
2023-01-21T11:41:05.332Z,0.10
2023-01-21T11:43:44.476Z,0.30
2023-01-21T11:46:36.505Z,0.40
2023-01-21T11:49:08.815Z,0.60
2023-01-21T11:51:37.739Z,0.70
2023-01-21T11:54:24.291Z,0.70
2023-01-21T11:56:59.820Z,0.60
2023-01-21T11:59:33.912Z,0.50
2023-01-21T12:02:43.489Z,0.40
2023-01-21T12:05:25.287Z,0.30
2023-01-21T12:07:52.557Z,0.40
2023-01-21T12:10:43.879Z,0.50
2023-01-21T12:13:50.053Z,0.50
2023-01-21T12:16:40.389Z,0.50
2023-01-21T12:19:25.517Z,0.60
2023-01-21T12:22:17.574Z,0.60
2023-01-21T12:24:52.606Z,0.70
2023-01-21T12:27:31.217Z,0.70
2023-01-21T12:30:18.771Z,0.70
2023-01-21T12:32:56.526Z,0.80
2023-01-21T12:35:55.478Z,0.70
2023-01-21T12:38:32.593Z,0.70
2023-01-21T12:41:27.637Z,0.70
2023-01-21T12:44:24.635Z,0.70
2023-01-21T12:46:54.268Z,0.70
2023-01-21T12:49:48.163Z,0.70
2023-01-21T12:52:22.753Z,0.90
2023-01-21T12:55:21.938Z,0.80
2023-01-21T12:58:02.479Z,0.70
2023-01-21T13:00:33.803Z,0.80
2023-01-21T13:03:06.591Z,0.60
2023-01-21T13:05:38.359Z,0.60
2023-01-21T13:08:42.696Z,0.60
2023-01-21T13:11:29.405Z,0.70
2023-01-21T13:14:07.976Z,0.60
2023-01-21T13:16:41.050Z,0.70
2023-01-21T13:19:12.368Z,0.80
2023-01-21T13:21:58.675Z,1.00
2023-01-21T13:24:34.213Z,1.10
2023-01-21T13:27:15.190Z,1.00
2023-01-21T13:29:46.319Z,1.10
2023-01-21T13:32:42.481Z,1.10
2023-01-21T13:35:09.282Z,0.90
2023-01-21T13:37:40.767Z,1.00
2023-01-21T13:40:44.821Z,0.80
2023-01-21T13:43:38.572Z,0.80
2023-01-21T13:46:16.553Z,0.90
2023-01-21T13:49:11.286Z,1.00
2023-01-21T13:52:01.491Z,0.90
2023-01-21T13:54:56.128Z,0.80
2023-01-21T13:57:36.014Z,0.90
2023-01-21T14:00:19.826Z,0.80
2023-01-21T14:02:52.429Z,0.80
2023-01-21T14:05:41.213Z,0.80
2023-01-21T14:08:26.406Z,0.90
2023-01-21T14:10:57.532Z,0.80
2023-01-21T14:13:45.525Z,0.80
2023-01-21T14:17:01.134Z,0.70
2023-01-21T14:19:49.462Z,0.80
2023-01-21T14:22:23.565Z,0.80
2023-01-21T14:24:53.046Z,0.70
2023-01-21T14:27:38.556Z,0.70
2023-01-21T14:30:25.866Z,0.70
2023-01-21T14:32:54.105Z,0.60
2023-01-21T14:35:49.706Z,0.70
2023-01-21T14:38:55.218Z,0.70
2023-01-21T14:41:21.926Z,0.80
2023-01-21T14:43:51.581Z,0.70
2023-01-21T14:46:27.113Z,0.70
2023-01-21T14:49:10.327Z,0.60
2023-01-21T14:51:47.966Z,0.60
2023-01-21T14:54:26.771Z,0.50
2023-01-21T14:56:56.885Z,0.50
2023-01-21T14:59:35.321Z,0.50
2023-01-21T15:02:21.466Z,0.50
2023-01-21T15:04:59.880Z,0.50
2023-01-21T15:07:38.830Z,0.50
2023-01-21T15:10:15.394Z,0.50
2023-01-21T15:12:55.433Z,0.50
2023-01-21T15:15:31.117Z,0.40
2023-01-21T15:18:20.707Z,0.30
2023-01-21T15:20:59.533Z,0.30
2023-01-21T15:23:31.905Z,0.20
2023-01-21T15:26:19.986Z,0.30
2023-01-21T15:28:49.150Z,0.20
2023-01-21T15:31:21.776Z,0.30
2023-01-21T15:33:50.413Z,0.30
2023-01-21T15:36:26.037Z,0.20
2023-01-21T15:38:56.569Z,0.30
2023-01-21T15:41:48.051Z,0.20
2023-01-21T15:44:41.195Z,0.30
2023-01-21T15:47:39.103Z,0.20
2023-01-21T15:50:20.849Z,0.20
2023-01-21T15:53:12.897Z,0.20
2023-01-21T15:56:10.356Z,0.20
2023-01-21T15:59:06.168Z,0.10
2023-01-21T16:01:35.149Z,0.00
2023-01-21T16:04:30.371Z,0.00
2023-01-21T16:07:28.082Z,0.00
2023-01-21T16:10:11.950Z,-0.10
2023-01-21T16:13:04.764Z,-0.10
2023-01-21T16:15:44.424Z,-0.10
2023-01-21T16:18:25.069Z,-0.10
2023-01-21T16:20:54.633Z,-0.10
2023-01-21T16:23:24.469Z,-0.10
2023-01-21T16:25:52.886Z,-0.10
2023-01-21T16:28:20.685Z,-0.10
2023-01-21T16:30:58.959Z,-0.20
2023-01-21T16:33:25.841Z,-0.30
2023-01-21T16:35:58.159Z,-0.20
2023-01-21T16:38:31.236Z,-0.30
2023-01-21T16:41:07.323Z,-0.30
2023-01-21T16:43:44.594Z,-0.30
2023-01-21T16:46:17.741Z,-0.40
2023-01-21T16:48:51.257Z,-0.40
2023-01-21T16:51:24.220Z,-0.30
2023-01-21T16:54:14.215Z,-0.40
2023-01-21T16:56:48.308Z,-0.50
2023-01-21T16:59:19.804Z,-0.50
2023-01-21T17:01:48.041Z,-0.50
2023-01-21T17:04:14.807Z,-0.50
2023-01-21T17:06:44.223Z,-0.50
2023-01-21T17:09:25.756Z,-0.40
2023-01-21T17:11:53.398Z,-0.40
2023-01-21T17:14:29.797Z,-0.30
2023-01-21T17:17:00.000Z,-0.30
2023-01-21T17:19:38.310Z,-0.40
2023-01-21T17:22:22.817Z,-0.30
2023-01-21T17:25:03.835Z,-0.30
2023-01-21T17:27:31.476Z,-0.20
2023-01-21T17:30:31.685Z,-0.20
2023-01-21T17:33:00.740Z,-0.10
2023-01-21T17:35:29.936Z,-0.10
2023-01-21T17:37:58.202Z,0.00
2023-01-21T17:40:25.275Z,0.00
2023-01-21T17:42:52.407Z,0.10
2023-01-21T17:45:31.624Z,0.10
2023-01-21T17:48:09.560Z,0.10
2023-01-21T17:50:37.164Z,0.20
2023-01-21T17:53:07.217Z,0.10
2023-01-21T17:55:40.676Z,0.10
2023-01-21T17:58:34.472Z,0.20
2023-01-21T18:01:03.178Z,0.20
2023-01-21T18:03:30.179Z,0.20
2023-01-21T18:05:57.313Z,0.20
2023-01-21T18:08:24.515Z,0.20
2023-01-21T18:10:51.188Z,0.20
2023-01-21T18:13:19.660Z,0.30
2023-01-21T18:15:51.251Z,0.30
2023-01-21T18:18:25.441Z,0.30
2023-01-21T18:20:52.217Z,0.30
2023-01-21T18:23:19.716Z,0.30
2023-01-21T18:25:52.223Z,0.30
2023-01-21T18:28:21.006Z,0.30
2023-01-21T18:30:48.507Z,0.30
2023-01-21T18:33:15.735Z,0.30
2023-01-21T18:35:45.071Z,0.30
2023-01-21T18:38:14.060Z,0.30
2023-01-21T18:40:40.694Z,0.30
2023-01-21T18:43:07.477Z,0.30
2023-01-21T18:45:34.212Z,0.40
2023-01-21T18:48:00.833Z,0.40
2023-01-21T18:50:29.898Z,0.40
2023-01-21T18:52:56.639Z,0.30
2023-01-21T18:55:27.477Z,0.30
2023-01-21T18:57:56.784Z,0.50
2023-01-21T19:00:25.005Z,0.50
2023-01-21T19:02:53.425Z,0.40
2023-01-21T19:05:22.379Z,0.40
2023-01-21T19:07:49.020Z,0.40
2023-01-21T19:10:20.101Z,0.40
2023-01-21T19:12:48.017Z,0.30
2023-01-21T19:15:16.948Z,0.30
2023-01-21T19:17:44.479Z,0.30
2023-01-21T19:20:20.222Z,0.30
2023-01-21T19:22:48.216Z,0.30
2023-01-21T19:25:15.255Z,0.30
2023-01-21T19:27:45.190Z,0.30
2023-01-21T19:30:28.554Z,0.30
2023-01-21T19:32:56.330Z,0.30
2023-01-21T19:35:31.445Z,0.30
2023-01-21T19:37:58.809Z,0.30
2023-01-21T19:40:27.868Z,0.30
2023-01-21T19:42:54.642Z,0.30
2023-01-21T19:45:24.245Z,0.20
2023-01-21T19:47:51.451Z,0.30
2023-01-21T19:50:21.259Z,0.30
2023-01-21T19:52:50.226Z,0.30
2023-01-21T19:55:22.414Z,0.30
2023-01-21T19:57:57.568Z,0.30
2023-01-21T20:00:34.773Z,0.30
2023-01-21T20:03:01.667Z,0.30
2023-01-21T20:05:33.504Z,0.30
2023-01-21T20:08:01.321Z,0.30
2023-01-21T20:10:29.593Z,0.30
2023-01-21T20:12:56.863Z,0.20
2023-01-21T20:15:31.755Z,0.30
2023-01-21T20:17:59.665Z,0.20
2023-01-21T20:20:28.806Z,0.20
2023-01-21T20:22:56.239Z,0.20
2023-01-21T20:25:26.303Z,0.20
2023-01-21T20:27:59.122Z,0.20
2023-01-21T20:30:29.466Z,0.20
2023-01-21T20:32:57.017Z,0.20
2023-01-21T20:35:26.832Z,0.30
2023-01-21T20:37:55.459Z,0.30
2023-01-21T20:40:30.460Z,0.30
2023-01-21T20:42:57.788Z,0.30
2023-01-21T20:45:34.094Z,0.30
2023-01-21T20:48:02.864Z,0.40
2023-01-21T20:50:33.504Z,0.40
2023-01-21T20:53:00.224Z,0.40
2023-01-21T20:55:28.284Z,0.30
2023-01-21T20:57:56.167Z,0.40
2023-01-21T21:00:34.520Z,0.40
2023-01-21T21:03:01.359Z,0.40
2023-01-21T21:05:28.635Z,0.40
2023-01-21T21:07:56.154Z,0.30
2023-01-21T21:10:35.942Z,0.40
2023-01-21T21:13:03.436Z,0.40
2023-01-21T21:15:33.018Z,0.40
2023-01-21T21:18:00.070Z,0.40
2023-01-21T21:20:29.398Z,0.40
2023-01-21T21:22:56.548Z,0.40
2023-01-21T21:25:25.503Z,0.40
2023-01-21T21:27:53.522Z,0.30
2023-01-21T21:30:26.782Z,0.40
2023-01-21T21:32:55.111Z,0.40
2023-01-21T21:35:27.797Z,0.30
2023-01-21T21:37:57.039Z,0.30
2023-01-21T21:40:25.913Z,0.30
2023-01-21T21:43:11.149Z,0.20
2023-01-21T21:45:40.614Z,0.10
2023-01-21T21:48:39.039Z,0.10
2023-01-21T21:51:07.852Z,0.00
2023-01-21T21:53:34.695Z,0.10
2023-01-21T21:56:08.298Z,-0.10
2023-01-21T21:58:35.575Z,-0.10
2023-01-21T22:01:16.062Z,-0.10
2023-01-21T22:03:43.025Z,-0.10
2023-01-21T22:06:11.241Z,-0.10
2023-01-21T22:08:40.352Z,-0.10
2023-01-21T22:11:09.904Z,-0.10
2023-01-21T22:13:40.012Z,-0.10
2023-01-21T22:16:08.247Z,-0.10
2023-01-21T22:18:35.333Z,-0.10
2023-01-21T22:21:02.827Z,-0.20
2023-01-21T22:23:30.755Z,-0.10
2023-01-21T22:26:00.097Z,-0.20
2023-01-21T22:28:27.235Z,-0.20
2023-01-21T22:30:54.522Z,-0.20
2023-01-21T22:33:22.145Z,-0.20
2023-01-21T22:35:49.249Z,-0.20
2023-01-21T22:38:15.992Z,-0.20
2023-01-21T22:40:42.622Z,-0.20
2023-01-21T22:43:10.856Z,-0.20
2023-01-21T22:45:37.505Z,-0.20
2023-01-21T22:48:04.432Z,-0.20
2023-01-21T22:50:31.091Z,-0.20
2023-01-21T22:52:58.125Z,-0.10
2023-01-21T22:55:24.775Z,-0.10
2023-01-21T22:57:51.412Z,-0.10
2023-01-21T23:00:38.271Z,-0.20
2023-01-21T23:03:06.069Z,-0.20
2023-01-21T23:05:35.436Z,-0.20
2023-01-21T23:08:02.203Z,-0.20
2023-01-21T23:10:29.071Z,-0.30
2023-01-21T23:12:55.685Z,-0.30
2023-01-21T23:15:23.669Z,-0.20
2023-01-21T23:17:52.646Z,-0.20
2023-01-21T23:20:20.562Z,-0.30
2023-01-21T23:22:47.198Z,-0.30
2023-01-21T23:25:15.159Z,-0.20
2023-01-21T23:27:41.884Z,-0.30
2023-01-21T23:30:09.761Z,-0.20
2023-01-21T23:32:36.408Z,-0.20
2023-01-21T23:35:03.104Z,-0.20
2023-01-21T23:37:29.733Z,-0.20
2023-01-21T23:39:56.430Z,-0.20
2023-01-21T23:42:26.059Z,-0.30
2023-01-21T23:44:52.704Z,-0.20
2023-01-21T23:47:19.431Z,-0.30
2023-01-21T23:49:46.391Z,-0.30
2023-01-21T23:52:13.085Z,-0.30
2023-01-21T23:54:40.463Z,-0.40
2023-01-21T23:57:07.802Z,-0.30
2023-01-21T23:59:36.349Z,-0.30
